Time;durP1;ratioP1;P1;durP2;ratioP2;P2;SDS_P1;SDS_P2;PMS_P1;PMS_P2;Temp;Humidity;BMP_temperature;BMP_pressure;BME280_temperature;BME280_humidity;BME280_pressure;Samples;Min_cycle;Max_cycle;Signal;HPM_P1;HPM_P2
2023/08/29 00:01:13;;;;;;;1.70;1.40;;;16.00;99.90;;;;;;5053100;28;20017;-42
2023/08/29 00:03:39;;;;;;;1.80;1.15;;;16.00;99.90;;;;;;5047780;28;20016;-43
2023/08/29 00:06:07;;;;;;;1.63;1.30;;;16.00;99.90;;;;;;5055415;28;20075;-43
2023/08/29 00:08:33;;;;;;;1.35;1.17;;;16.00;99.90;;;;;;5046130;28;20060;-43
2023/08/29 00:11:00;;;;;;;1.00;0.95;;;16.00;99.90;;;;;;5057330;28;20059;-43
2023/08/29 00:13:25;;;;;;;2.05;1.10;;;16.00;99.90;;;;;;5047260;28;20028;-43
2023/08/29 00:15:51;;;;;;;1.98;1.10;;;16.00;99.90;;;;;;5056494;28;20479;-42
2023/08/29 00:18:19;;;;;;;1.17;1.05;;;15.90;99.90;;;;;;5045280;28;20025;-43
2023/08/29 00:20:45;;;;;;;1.40;1.10;;;16.00;99.90;;;;;;5058000;28;20059;-42
2023/08/29 00:23:11;;;;;;;2.22;1.00;;;16.00;99.90;;;;;;5044991;28;20631;-43
2023/08/29 00:25:36;;;;;;;1.70;1.38;;;15.90;99.90;;;;;;5058535;28;20027;-42
2023/08/29 00:28:03;;;;;;;1.23;1.13;;;15.90;99.90;;;;;;5045587;28;20033;-43
2023/08/29 00:30:36;;;;;;;1.83;1.20;;;15.90;99.90;;;;;;5055488;28;20029;-43
2023/08/29 00:33:02;;;;;;;4.00;1.42;;;15.90;99.90;;;;;;5046462;28;20025;-43
2023/08/29 00:35:27;;;;;;;1.70;1.25;;;15.80;99.90;;;;;;5054765;28;20031;-43
2023/08/29 00:37:53;;;;;;;1.98;1.30;;;15.80;99.90;;;;;;5048939;28;20033;-43
2023/08/29 00:40:19;;;;;;;2.42;1.30;;;15.70;99.90;;;;;;5051234;28;20032;-43
2023/08/29 00:42:44;;;;;;;1.65;1.30;;;15.70;99.90;;;;;;5051435;28;20024;-43
2023/08/29 00:45:10;;;;;;;2.25;1.20;;;15.70;99.90;;;;;;5047895;28;20043;-42
2023/08/29 00:47:37;;;;;;;2.53;1.40;;;15.60;99.90;;;;;;5054317;28;20512;-42
2023/08/29 00:50:03;;;;;;;1.90;1.48;;;15.60;99.90;;;;;;5045906;28;20473;-42
2023/08/29 00:52:30;;;;;;;3.28;1.35;;;15.60;99.90;;;;;;5045649;28;20021;-43
2023/08/29 00:54:56;;;;;;;2.13;1.10;;;15.60;99.90;;;;;;5045440;28;20068;-42
2023/08/29 00:57:22;;;;;;;1.02;1.02;;;15.60;99.90;;;;;;5055556;28;20033;-42
2023/08/29 00:59:48;;;;;;;1.90;1.40;;;15.60;99.90;;;;;;5045223;28;20055;-42
2023/08/29 01:02:14;;;;;;;2.38;1.30;;;15.50;99.90;;;;;;5044572;28;20036;-42
2023/08/29 01:04:39;;;;;;;3.53;1.30;;;15.60;99.90;;;;;;5044359;28;20032;-42
2023/08/29 01:07:05;;;;;;;1.20;1.10;;;15.50;99.90;;;;;;5056660;28;20032;-42
2023/08/29 01:09:31;;;;;;;1.40;1.30;;;15.50;99.90;;;;;;5045076;28;20024;-42
2023/08/29 01:12:16;;;;;;;2.58;1.30;;;15.40;99.90;;;;;;5055211;28;20025;-43
2023/08/29 01:15:10;;;;;;;1.35;1.08;;;15.40;99.90;;;;;;5045043;28;20032;-43
2023/08/29 01:17:41;;;;;;;1.70;1.23;;;15.50;99.90;;;;;;5056397;28;20064;-43
2023/08/29 01:20:10;;;;;;;2.65;1.40;;;15.40;99.90;;;;;;5044317;28;20044;-42
2023/08/29 01:22:52;;;;;;;3.72;1.25;;;15.40;99.90;;;;;;5057727;28;20044;-42
2023/08/29 01:25:39;;;;;;;2.38;1.42;;;15.40;99.90;;;;;;5043841;28;20120;-42
2023/08/29 01:28:06;;;;;;;2.38;0.98;;;15.40;99.90;;;;;;5051475;28;20162;-42
2023/08/29 01:30:33;;;;;;;1.58;1.30;;;15.40;99.90;;;;;;5055051;28;20029;-42
2023/08/29 01:32:59;;;;;;;1.85;1.40;;;15.30;99.90;;;;;;5055873;28;20030;-42
2023/08/29 01:35:25;;;;;;;1.85;1.30;;;15.30;99.90;;;;;;5044538;28;20125;-42
2023/08/29 01:37:51;;;;;;;1.27;1.05;;;15.30;99.90;;;;;;5056605;28;20028;-42
2023/08/29 01:40:16;;;;;;;1.80;1.17;;;15.30;99.90;;;;;;5044209;28;20043;-42
2023/08/29 01:42:42;;;;;;;1.58;1.40;;;15.30;99.90;;;;;;5053066;28;20027;-42
2023/08/29 01:45:08;;;;;;;1.67;1.25;;;15.20;99.90;;;;;;5047387;28;20032;-43
2023/08/29 01:47:34;;;;;;;2.80;1.33;;;15.20;99.90;;;;;;5050105;28;20017;-42
2023/08/29 01:50:03;;;;;;;2.95;1.35;;;15.20;99.90;;;;;;5049936;28;20800;-42
2023/08/29 01:52:28;;;;;;;1.98;1.23;;;15.10;99.90;;;;;;5049061;28;20051;-42
2023/08/29 01:54:54;;;;;;;1.50;1.40;;;15.10;99.90;;;;;;5051355;28;20385;-42
2023/08/29 01:57:21;;;;;;;2.33;1.10;;;15.10;99.90;;;;;;5045076;28;20107;-42
2023/08/29 01:59:47;;;;;;;2.80;1.40;;;15.10;99.90;;;;;;5054690;28;20049;-42
2023/08/29 02:02:17;;;;;;;1.50;1.40;;;15.10;99.90;;;;;;5043925;28;20025;-43
2023/08/29 02:04:43;;;;;;;1.70;1.30;;;15.00;99.90;;;;;;5055256;28;20036;-43
2023/08/29 02:07:28;;;;;;;2.00;1.50;;;15.00;99.90;;;;;;5056512;28;20388;-44
2023/08/29 02:09:54;;;;;;;1.27;1.17;;;15.00;99.90;;;;;;5051108;28;20043;-43
2023/08/29 02:12:20;;;;;;;1.38;1.15;;;15.00;99.90;;;;;;5062197;28;20020;-44
2023/08/29 02:14:57;;;;;;;1.30;1.20;;;14.90;99.90;;;;;;5051513;28;20032;-43
2023/08/29 02:17:23;;;;;;;1.35;1.20;;;14.90;99.90;;;;;;5063934;28;20060;-43
2023/08/29 02:19:48;;;;;;;1.20;1.10;;;14.90;99.90;;;;;;5051170;28;20449;-43
2023/08/29 02:22:14;;;;;;;2.97;1.33;;;14.90;99.90;;;;;;5062384;28;20021;-44
2023/08/29 02:24:40;;;;;;;1.45;1.13;;;15.00;99.90;;;;;;5051368;28;20039;-44
2023/08/29 02:27:06;;;;;;;1.42;1.30;;;15.00;99.90;;;;;;5065443;28;20017;-42
2023/08/29 02:29:32;;;;;;;1.52;1.13;;;14.90;99.90;;;;;;5056085;28;20472;-43
2023/08/29 02:32:00;;;;;;;2.05;1.00;;;14.90;99.90;;;;;;5067627;28;20109;-43
2023/08/29 02:34:29;;;;;;;1.70;0.98;;;15.00;99.90;;;;;;5058626;28;20036;-43
2023/08/29 02:37:04;;;;;;;1.33;1.23;;;14.90;99.90;;;;;;5064130;28;20532;-43
2023/08/29 02:39:30;;;;;;;1.70;1.30;;;15.00;99.90;;;;;;5060006;28;20055;-43
2023/08/29 02:41:55;;;;;;;1.17;1.00;;;15.00;99.90;;;;;;5063817;28;20483;-43
2023/08/29 02:44:21;;;;;;;1.50;1.20;;;15.00;99.90;;;;;;5060112;28;20032;-43
2023/08/29 02:46:46;;;;;;;1.20;1.10;;;15.00;99.90;;;;;;5061024;28;20559;-44
2023/08/29 02:49:12;;;;;;;1.27;1.08;;;15.00;99.90;;;;;;5064149;28;20754;-43
2023/08/29 02:51:38;;;;;;;1.10;1.00;;;15.00;99.90;;;;;;5057006;28;20472;-43
2023/08/29 02:54:03;;;;;;;1.15;1.05;;;14.90;99.90;;;;;;5065575;28;20093;-43
2023/08/29 02:56:29;;;;;;;1.08;0.98;;;14.90;99.90;;;;;;5056154;28;20032;-43
2023/08/29 02:58:54;;;;;;;1.92;1.27;;;14.90;99.90;;;;;;5065223;28;20044;-43
2023/08/29 03:01:20;;;;;;;2.10;1.13;;;14.90;99.90;;;;;;5063604;28;20392;-43
2023/08/29 03:03:46;;;;;;;0.85;0.85;;;14.80;99.90;;;;;;5066709;28;20506;-43
2023/08/29 03:06:11;;;;;;;1.92;1.40;;;14.80;99.90;;;;;;5054389;28;20021;-43
2023/08/29 03:08:37;;;;;;;2.05;1.08;;;14.90;99.90;;;;;;5067571;28;20024;-43
2023/08/29 03:11:04;;;;;;;1.10;1.05;;;14.90;99.90;;;;;;5053829;28;20447;-43
2023/08/29 03:13:32;;;;;;;0.80;0.80;;;14.90;99.90;;;;;;5047625;28;20035;-42
2023/08/29 03:15:59;;;;;;;0.98;0.98;;;14.90;99.90;;;;;;5057845;28;20099;-42
2023/08/29 03:18:26;;;;;;;1.52;1.20;;;14.90;99.90;;;;;;5048452;28;20099;-43
2023/08/29 03:20:52;;;;;;;1.83;1.00;;;14.80;99.90;;;;;;5054473;28;20016;-42
2023/08/29 03:23:18;;;;;;;1.23;0.80;;;14.90;99.90;;;;;;5050898;28;20028;-42
2023/08/29 03:25:43;;;;;;;1.20;0.98;;;14.80;99.90;;;;;;5051697;28;20398;-42
2023/08/29 03:28:09;;;;;;;1.23;1.13;;;14.80;99.90;;;;;;5053795;28;20039;-42
2023/08/29 03:30:35;;;;;;;1.42;0.80;;;14.80;99.90;;;;;;5052136;28;20059;-42
2023/08/29 03:33:03;;;;;;;1.25;0.90;;;14.80;99.90;;;;;;5056255;28;20024;-43
2023/08/29 03:35:29;;;;;;;1.40;0.70;;;14.80;99.90;;;;;;5065276;28;20033;-43
2023/08/29 03:37:55;;;;;;;1.25;0.70;;;14.80;99.90;;;;;;5055585;28;20058;-43
2023/08/29 03:40:23;;;;;;;0.65;0.65;;;14.80;99.90;;;;;;5064313;28;20123;-43
2023/08/29 03:42:49;;;;;;;0.93;0.75;;;14.60;99.90;;;;;;5055884;28;20016;-43
2023/08/29 03:45:15;;;;;;;2.10;0.90;;;14.60;99.90;;;;;;5066086;28;20377;-43
2023/08/29 03:47:40;;;;;;;1.25;0.80;;;14.50;99.90;;;;;;5052711;28;20072;-43
2023/08/29 03:50:06;;;;;;;1.33;1.10;;;14.50;99.90;;;;;;5066489;28;20024;-43
2023/08/29 03:52:32;;;;;;;1.20;1.10;;;14.50;99.90;;;;;;5053627;28;20029;-43
2023/08/29 03:54:58;;;;;;;2.67;1.40;;;14.50;99.90;;;;;;5065168;28;20044;-42
2023/08/29 03:57:26;;;;;;;1.48;1.38;;;14.50;99.90;;;;;;5055238;28;20167;-43
2023/08/29 03:59:52;;;;;;;1.20;0.98;;;14.50;99.90;;;;;;5063894;28;20828;-43
2023/08/29 04:02:18;;;;;;;1.65;1.08;;;14.50;99.90;;;;;;5056984;28;20031;-43
2023/08/29 04:04:44;;;;;;;2.53;0.88;;;14.60;99.90;;;;;;5062747;28;20120;-44
2023/08/29 04:07:10;;;;;;;2.08;1.00;;;14.50;99.90;;;;;;5059098;28;20128;-43
2023/08/29 04:09:37;;;;;;;1.35;0.88;;;14.50;99.90;;;;;;5059731;28;20463;-43
2023/08/29 04:12:02;;;;;;;1.08;1.00;;;14.50;99.90;;;;;;5062183;28;20016;-43
2023/08/29 04:14:28;;;;;;;1.23;1.10;;;14.50;99.90;;;;;;5056632;28;20069;-42
2023/08/29 04:16:54;;;;;;;2.20;1.00;;;14.50;99.90;;;;;;5064573;28;20532;-42
2023/08/29 04:19:20;;;;;;;0.63;0.63;;;14.50;99.90;;;;;;5054511;28;20086;-43
2023/08/29 04:21:46;;;;;;;1.05;0.70;;;14.50;99.90;;;;;;5063732;28;20037;-43
2023/08/29 04:24:14;;;;;;;0.70;0.60;;;14.40;99.90;;;;;;5054294;28;20037;-42
2023/08/29 04:26:40;;;;;;;1.10;0.75;;;14.30;99.90;;;;;;5066196;28;20047;-43
2023/08/29 04:29:05;;;;;;;1.00;0.90;;;14.20;99.90;;;;;;5051876;28;20033;-43
2023/08/29 04:31:37;;;;;;;1.13;0.90;;;14.30;99.90;;;;;;5060640;28;20030;-43
2023/08/29 04:34:03;;;;;;;1.20;0.93;;;14.30;99.90;;;;;;5051767;28;20096;-43
2023/08/29 04:36:28;;;;;;;2.15;0.88;;;14.30;99.90;;;;;;5064806;28;20059;-43
2023/08/29 04:38:54;;;;;;;1.52;1.00;;;14.30;99.90;;;;;;5053379;28;20024;-44
2023/08/29 04:41:20;;;;;;;1.13;0.90;;;14.30;99.90;;;;;;5064261;28;20033;-42
2023/08/29 04:43:45;;;;;;;1.73;1.20;;;14.20;99.90;;;;;;5055580;28;20177;-43
2023/08/29 04:46:11;;;;;;;1.13;1.00;;;14.30;99.90;;;;;;5061265;28;20027;-43
2023/08/29 04:48:39;;;;;;;1.05;0.95;;;14.30;99.90;;;;;;5058687;28;20510;-43
2023/08/29 04:51:05;;;;;;;1.48;0.90;;;14.30;99.90;;;;;;5058516;28;20058;-43
2023/08/29 04:53:34;;;;;;;1.55;1.00;;;14.30;99.90;;;;;;5061255;28;20423;-43
2023/08/29 04:56:00;;;;;;;0.73;0.70;;;14.20;99.90;;;;;;5057825;28;20041;-43
2023/08/29 04:58:27;;;;;;;2.63;0.90;;;14.10;99.90;;;;;;5062317;28;20044;-43
2023/08/29 05:00:53;;;;;;;1.55;1.17;;;14.10;99.90;;;;;;5055275;28;20091;-43
2023/08/29 05:03:19;;;;;;;1.42;0.80;;;14.00;99.90;;;;;;5063045;28;20761;-43
2023/08/29 05:05:47;;;;;;;1.25;0.95;;;14.00;99.90;;;;;;5053400;28;20032;-43
2023/08/29 05:08:13;;;;;;;1.83;1.00;;;14.00;99.90;;;;;;5063934;28;20103;-44
2023/08/29 05:10:40;;;;;;;2.28;0.85;;;14.00;99.90;;;;;;5045007;28;20238;-43
2023/08/29 05:13:05;;;;;;;0.90;0.90;;;14.10;99.90;;;;;;5044938;28;20432;-42
2023/08/29 05:15:32;;;;;;;2.35;2.00;;;14.10;99.90;;;;;;5050879;28;20484;-42
2023/08/29 05:17:57;;;;;;;1.33;1.10;;;14.10;99.90;;;;;;5064312;28;20025;-43
2023/08/29 05:20:23;;;;;;;1.05;0.82;;;14.10;99.90;;;;;;5051916;28;20503;-43
2023/08/29 05:22:49;;;;;;;1.88;0.82;;;14.10;99.90;;;;;;5065011;28;20586;-43
2023/08/29 05:25:14;;;;;;;1.77;1.10;;;14.00;99.90;;;;;;5053125;28;20487;-44
2023/08/29 05:27:40;;;;;;;1.17;0.90;;;14.10;99.90;;;;;;5062454;28;20468;-43
2023/08/29 05:30:09;;;;;;;2.58;1.23;;;14.10;99.90;;;;;;5059576;28;20486;-43
2023/08/29 05:32:39;;;;;;;1.35;1.25;;;14.10;99.90;;;;;;5064049;28;20031;-43
2023/08/29 05:35:12;;;;;;;1.63;1.33;;;14.10;99.90;;;;;;5058600;28;20035;-44
2023/08/29 05:37:37;;;;;;;1.65;1.55;;;14.10;99.90;;;;;;5053181;28;20105;-44
2023/08/29 05:40:03;;;;;;;1.25;1.15;;;14.10;99.90;;;;;;5058800;28;20836;-42
2023/08/29 05:42:35;;;;;;;1.45;1.02;;;14.10;99.90;;;;;;5055939;28;20480;-43
2023/08/29 05:45:01;;;;;;;2.77;1.50;;;14.10;99.90;;;;;;5059330;28;20024;-43
2023/08/29 05:47:27;;;;;;;1.85;1.55;;;14.10;99.90;;;;;;5052711;28;20020;-43
2023/08/29 05:49:53;;;;;;;1.40;1.00;;;14.10;99.90;;;;;;5062155;28;20040;-43
2023/08/29 05:52:18;;;;;;;1.10;1.00;;;14.10;99.90;;;;;;5052519;28;20101;-43
2023/08/29 05:54:44;;;;;;;1.30;1.10;;;14.10;99.90;;;;;;5061550;28;20088;-42
2023/08/29 05:57:09;;;;;;;1.50;1.15;;;14.00;99.90;;;;;;5051109;28;20031;-43
2023/08/29 05:59:35;;;;;;;2.17;1.08;;;14.10;99.90;;;;;;5062390;28;20049;-43
2023/08/29 06:02:00;;;;;;;1.25;1.10;;;14.10;99.90;;;;;;5048876;28;20090;-43
2023/08/29 06:04:26;;;;;;;1.05;0.90;;;14.10;99.90;;;;;;5063424;28;20028;-44
2023/08/29 06:06:51;;;;;;;1.20;1.10;;;14.00;99.90;;;;;;5050564;28;20031;-43
2023/08/29 06:09:18;;;;;;;1.98;1.00;;;14.00;99.90;;;;;;5062564;28;20621;-42
2023/08/29 06:11:44;;;;;;;1.05;0.98;;;14.00;99.90;;;;;;5053580;28;20056;-43
2023/08/29 06:14:09;;;;;;;2.00;1.10;;;14.00;99.90;;;;;;5059669;28;20825;-43
2023/08/29 06:16:35;;;;;;;1.05;0.90;;;14.00;99.90;;;;;;5056415;28;20373;-43
2023/08/29 06:19:01;;;;;;;1.10;0.98;;;14.00;99.90;;;;;;5057643;28;20056;-43
2023/08/29 06:21:26;;;;;;;1.60;0.90;;;14.00;99.90;;;;;;5058632;28;20021;-43
2023/08/29 06:23:52;;;;;;;1.20;1.10;;;14.00;99.90;;;;;;5054479;28;20031;-43
2023/08/29 06:26:17;;;;;;;0.88;0.85;;;14.10;99.90;;;;;;5060626;28;20033;-44
2023/08/29 06:28:43;;;;;;;1.08;0.98;;;14.20;99.90;;;;;;5051729;28;20529;-43
2023/08/29 06:31:09;;;;;;;0.90;0.85;;;14.20;99.90;;;;;;5053355;28;20037;-43
2023/08/29 06:33:35;;;;;;;2.05;1.10;;;14.30;99.90;;;;;;5053625;28;20052;-43
2023/08/29 06:36:01;;;;;;;1.52;1.08;;;14.40;99.90;;;;;;5041952;28;20045;-43
2023/08/29 06:38:27;;;;;;;1.25;1.10;;;14.50;99.90;;;;;;5057978;28;20094;-43
2023/08/29 06:40:57;;;;;;;1.65;1.33;;;14.60;99.90;;;;;;5042613;28;20340;-43
2023/08/29 06:43:23;;;;;;;1.25;1.13;;;14.70;99.90;;;;;;5055183;28;20099;-43
2023/08/29 06:45:49;;;;;;;1.10;1.00;;;14.80;99.90;;;;;;5043609;28;20028;-43
2023/08/29 06:48:15;;;;;;;1.08;0.98;;;15.00;99.90;;;;;;5054698;28;20380;-43
2023/08/29 06:50:40;;;;;;;0.80;0.80;;;15.00;99.90;;;;;;5043830;28;20119;-43
2023/08/29 06:53:06;;;;;;;1.23;0.90;;;15.10;99.90;;;;;;5051875;28;20017;-43
2023/08/29 06:55:34;;;;;;;1.38;1.00;;;15.20;99.90;;;;;;5046945;28;20735;-44
2023/08/29 06:58:00;;;;;;;1.25;0.80;;;15.20;99.90;;;;;;5048868;28;20449;-45
2023/08/29 07:00:26;;;;;;;1.10;0.93;;;15.30;99.90;;;;;;5048345;28;20122;-43
2023/08/29 07:02:51;;;;;;;1.17;0.90;;;15.40;99.90;;;;;;5046682;28;20042;-43
2023/08/29 07:05:20;;;;;;;1.95;0.90;;;15.50;99.90;;;;;;5050605;28;20120;-44
2023/08/29 07:07:48;;;;;;;1.17;0.80;;;15.60;99.90;;;;;;5045602;28;20063;-43
2023/08/29 07:10:14;;;;;;;1.42;0.75;;;15.70;99.90;;;;;;5050875;28;20060;-44
2023/08/29 07:12:40;;;;;;;1.10;0.80;;;15.70;99.90;;;;;;5046078;28;20024;-44
2023/08/29 07:15:12;;;;;;;1.80;0.70;;;15.90;99.90;;;;;;5057784;28;20064;-43
2023/08/29 07:17:38;;;;;;;1.33;0.60;;;15.90;99.90;;;;;;5048036;28;20129;-43
2023/08/29 07:20:08;;;;;;;0.93;0.60;;;16.00;99.90;;;;;;5057762;28;20539;-43
2023/08/29 07:22:36;;;;;;;0.82;0.75;;;16.10;99.90;;;;;;5047893;28;20126;-43
2023/08/29 07:25:02;;;;;;;0.70;0.70;;;16.10;99.90;;;;;;5056758;28;20151;-43
2023/08/29 07:27:29;;;;;;;1.13;0.63;;;16.20;99.90;;;;;;5047537;28;20021;-43
2023/08/29 07:29:55;;;;;;;0.90;0.65;;;16.30;99.90;;;;;;5060027;28;20031;-45
2023/08/29 07:32:21;;;;;;;1.17;0.60;;;16.30;99.90;;;;;;5066237;28;20017;-43
2023/08/29 07:34:46;;;;;;;0.70;0.70;;;16.40;99.90;;;;;;5054662;28;20797;-43
2023/08/29 07:37:12;;;;;;;0.70;0.50;;;16.50;99.90;;;;;;5065488;28;20051;-42
2023/08/29 07:39:38;;;;;;;0.90;0.70;;;16.60;99.90;;;;;;5057006;28;20048;-43
2023/08/29 07:42:03;;;;;;;1.20;0.70;;;16.60;99.90;;;;;;5063063;28;20027;-43
2023/08/29 07:44:29;;;;;;;0.50;0.50;;;16.70;99.90;;;;;;5060145;28;20075;-43
2023/08/29 07:46:55;;;;;;;3.28;0.77;;;16.70;99.90;;;;;;5060247;28;20143;-42
2023/08/29 07:49:21;;;;;;;0.80;0.80;;;16.80;99.90;;;;;;5061865;28;20044;-43
2023/08/29 07:51:56;;;;;;;3.80;0.80;;;16.80;99.90;;;;;;5057940;28;20114;-43
2023/08/29 07:54:22;;;;;;;1.17;0.77;;;16.90;99.90;;;;;;5063621;28;20036;-43
2023/08/29 07:56:47;;;;;;;1.50;0.80;;;17.00;99.90;;;;;;5056895;28;20024;-43
2023/08/29 07:59:13;;;;;;;1.02;0.73;;;17.00;99.90;;;;;;5063575;28;20080;-41
2023/08/29 08:01:39;;;;;;;2.42;1.00;;;17.00;99.90;;;;;;5055308;28;20032;-43
2023/08/29 08:04:05;;;;;;;0.63;0.63;;;17.10;99.90;;;;;;5064406;28;20036;-42
2023/08/29 08:06:30;;;;;;;0.80;0.75;;;17.20;99.90;;;;;;5054108;28;20020;-42
2023/08/29 08:08:56;;;;;;;1.10;0.75;;;17.20;99.90;;;;;;5066717;28;20120;-42
2023/08/29 08:11:23;;;;;;;0.85;0.70;;;17.30;99.90;;;;;;5053401;28;20021;-42
2023/08/29 08:13:49;;;;;;;0.50;0.50;;;17.30;99.90;;;;;;5065677;28;20032;-43
2023/08/29 08:16:14;;;;;;;1.38;0.68;;;17.40;99.90;;;;;;5052997;28;20506;-42
2023/08/29 08:18:40;;;;;;;1.42;0.75;;;17.40;99.90;;;;;;5046047;28;20029;-42
2023/08/29 08:21:05;;;;;;;1.48;0.55;;;17.50;99.90;;;;;;5054191;28;20082;-42
2023/08/29 08:23:31;;;;;;;1.30;0.50;;;17.60;99.90;;;;;;5048395;28;20448;-42
2023/08/29 08:25:57;;;;;;;1.05;0.60;;;17.60;99.90;;;;;;5052241;28;20074;-43
2023/08/29 08:28:22;;;;;;;0.82;0.70;;;17.70;99.90;;;;;;5050744;28;20035;-42
2023/08/29 08:30:48;;;;;;;1.20;0.65;;;17.80;99.90;;;;;;5053922;28;20111;-44
2023/08/29 08:33:14;;;;;;;1.20;0.80;;;17.90;99.90;;;;;;5049743;28;20188;-42
2023/08/29 08:35:40;;;;;;;0.75;0.60;;;17.90;99.90;;;;;;5046585;28;20160;-42
2023/08/29 08:38:08;;;;;;;1.13;0.60;;;18.00;99.90;;;;;;5055515;28;20021;-41
2023/08/29 08:40:36;;;;;;;1.33;0.70;;;18.00;99.90;;;;;;5046827;28;20020;-42
2023/08/29 08:43:04;;;;;;;0.70;0.70;;;18.00;99.90;;;;;;5054959;28;20377;-43
2023/08/29 08:45:30;;;;;;;1.30;0.60;;;18.00;99.90;;;;;;5046612;28;20060;-43
2023/08/29 08:47:57;;;;;;;1.10;0.50;;;18.00;99.90;;;;;;5054852;28;20052;-43
2023/08/29 08:50:24;;;;;;;0.60;0.60;;;18.00;99.90;;;;;;5044197;28;20029;-43
2023/08/29 08:52:52;;;;;;;0.40;0.40;;;18.00;99.90;;;;;;5057603;28;20024;-42
2023/08/29 08:55:17;;;;;;;0.85;0.50;;;18.10;99.90;;;;;;5044063;28;20448;-42
2023/08/29 08:57:43;;;;;;;0.60;0.60;;;18.10;99.90;;;;;;5057820;28;20058;-42
2023/08/29 09:00:09;;;;;;;1.50;0.50;;;18.10;99.90;;;;;;5045126;28;20057;-42
2023/08/29 09:02:37;;;;;;;0.70;0.68;;;18.10;99.90;;;;;;5055253;28;20024;-43
2023/08/29 09:05:06;;;;;;;0.50;0.50;;;18.20;99.90;;;;;;5045275;28;20041;-43
2023/08/29 09:07:38;;;;;;;1.08;0.70;;;18.30;99.90;;;;;;5053676;28;20636;-43
2023/08/29 09:10:12;;;;;;;0.88;0.60;;;18.30;99.90;;;;;;5046053;28;20024;-43
2023/08/29 09:12:55;;;;;;;0.68;0.43;;;18.30;99.90;;;;;;5053389;28;20028;-43
2023/08/29 09:15:22;;;;;;;0.73;0.73;;;18.30;99.90;;;;;;5046374;28;20048;-43
2023/08/29 09:17:48;;;;;;;0.90;0.90;;;18.40;99.90;;;;;;5052041;28;20586;-43
2023/08/29 09:20:14;;;;;;;0.90;0.90;;;18.40;99.90;;;;;;5048039;28;20063;-43
2023/08/29 09:22:42;;;;;;;0.90;0.80;;;18.50;99.90;;;;;;5050008;28;20054;-42
2023/08/29 09:25:08;;;;;;;1.02;0.85;;;18.50;99.90;;;;;;5049733;28;20086;-43
2023/08/29 09:27:45;;;;;;;1.42;0.75;;;18.60;99.90;;;;;;5047136;28;20035;-43
2023/08/29 09:30:16;;;;;;;1.10;0.80;;;18.60;99.90;;;;;;5052187;28;20025;-43
2023/08/29 09:32:43;;;;;;;1.02;0.90;;;18.60;99.90;;;;;;5061441;28;20066;-43
2023/08/29 09:35:13;;;;;;;1.15;0.80;;;18.70;99.90;;;;;;5054495;28;20058;-43
2023/08/29 09:37:46;;;;;;;0.60;0.60;;;18.70;99.90;;;;;;5062179;28;20062;-43
2023/08/29 09:40:16;;;;;;;0.70;0.55;;;18.80;99.90;;;;;;5053968;28;20029;-42
2023/08/29 09:42:51;;;;;;;0.85;0.65;;;19.00;99.90;;;;;;5063139;28;20079;-42
2023/08/29 09:45:16;;;;;;;0.65;0.65;;;19.00;99.90;;;;;;5043233;28;20114;-42
2023/08/29 09:47:42;;;;;;;0.52;0.50;;;19.20;99.90;;;;;;5045040;28;20032;-42
2023/08/29 09:50:08;;;;;;;0.52;0.50;;;19.30;99.90;;;;;;5054603;28;20540;-42
2023/08/29 09:52:34;;;;;;;0.60;0.52;;;19.40;99.90;;;;;;5043926;28;20025;-43
2023/08/29 09:55:02;;;;;;;1.70;0.60;;;19.50;99.90;;;;;;5055981;28;20043;-43
2023/08/29 09:57:31;;;;;;;1.10;0.60;;;19.50;99.90;;;;;;5044736;28;20032;-42
2023/08/29 10:00:01;;;;;;;1.13;0.63;;;19.60;99.90;;;;;;5054537;28;20126;-43
2023/08/29 10:02:30;;;;;;;1.00;0.70;;;19.70;99.90;;;;;;5044447;28;20114;-43
2023/08/29 10:05:05;;;;;;;0.60;0.60;;;19.80;99.90;;;;;;5048121;28;20033;-42
2023/08/29 10:07:53;;;;;;;0.63;0.50;;;20.00;99.90;;;;;;5063734;28;20126;-42
2023/08/29 10:10:20;;;;;;;0.95;0.60;;;20.10;99.90;;;;;;5050657;28;20025;-43
2023/08/29 10:12:49;;;;;;;0.95;0.50;;;20.20;99.90;;;;;;5063434;28;20036;-43
2023/08/29 10:15:17;;;;;;;2.15;0.90;;;20.30;99.90;;;;;;5050123;28;20481;-42
2023/08/29 10:17:43;;;;;;;0.95;0.60;;;20.30;99.90;;;;;;5064206;28;20037;-42
2023/08/29 10:20:12;;;;;;;0.65;0.63;;;20.30;99.90;;;;;;5052150;28;20047;-42
2023/08/29 10:22:40;;;;;;;0.70;0.63;;;20.40;99.90;;;;;;5061957;28;20637;-42
2023/08/29 10:25:06;;;;;;;0.70;0.70;;;20.40;99.90;;;;;;5054354;28;20021;-43
2023/08/29 10:27:33;;;;;;;0.85;0.70;;;20.40;99.90;;;;;;5059035;28;20499;-42
2023/08/29 10:30:00;;;;;;;0.88;0.70;;;20.30;99.90;;;;;;5057135;28;20456;-42
2023/08/29 10:32:27;;;;;;;0.80;0.80;;;20.30;99.90;;;;;;5062278;28;20051;-42
2023/08/29 10:34:56;;;;;;;1.30;0.93;;;20.10;99.90;;;;;;5059016;28;20041;-41
2023/08/29 10:37:22;;;;;;;1.23;0.63;;;20.10;99.90;;;;;;5054698;28;20028;-43
2023/08/29 10:39:52;;;;;;;1.30;0.70;;;20.00;99.90;;;;;;5061581;28;20024;-43
2023/08/29 10:42:18;;;;;;;1.00;0.90;;;20.00;99.90;;;;;;5052279;28;20027;-43
2023/08/29 10:44:47;;;;;;;1.08;0.63;;;19.90;99.90;;;;;;5061999;28;20021;-43
2023/08/29 10:47:21;;;;;;;1.63;1.00;;;19.80;99.90;;;;;;5052457;28;20107;-43
2023/08/29 10:49:47;;;;;;;1.10;0.80;;;19.70;99.90;;;;;;5065681;28;20025;-42
2023/08/29 10:52:14;;;;;;;1.33;0.75;;;19.70;99.90;;;;;;5055605;28;20472;-43
2023/08/29 10:54:41;;;;;;;1.05;0.80;;;19.70;99.90;;;;;;5067308;28;20037;-43
2023/08/29 10:57:27;;;;;;;0.68;0.68;;;19.70;99.90;;;;;;5054059;28;20028;-43
2023/08/29 10:59:52;;;;;;;1.90;1.10;;;19.70;99.90;;;;;;5066516;28;20057;-43
2023/08/29 11:02:29;;;;;;;1.10;1.00;;;19.70;99.90;;;;;;5054057;28;20036;-43
2023/08/29 11:05:03;;;;;;;1.27;0.80;;;19.70;99.90;;;;;;5067201;28;20036;-43
2023/08/29 11:07:31;;;;;;;0.80;0.70;;;19.70;99.90;;;;;;5055680;28;20033;-43
2023/08/29 11:10:15;;;;;;;2.50;0.80;;;19.80;99.90;;;;;;5066270;28;20103;-43
2023/08/29 11:13:06;;;;;;;0.73;0.70;;;19.80;99.90;;;;;;5055854;28;20017;-43
2023/08/29 11:15:49;;;;;;;0.60;0.60;;;19.90;99.90;;;;;;5066182;28;20164;-43
2023/08/29 11:18:34;;;;;;;0.98;0.60;;;20.00;99.90;;;;;;5054440;28;20406;-43
2023/08/29 11:21:09;;;;;;;0.65;0.60;;;20.10;99.90;;;;;;5065433;28;20111;-43
2023/08/29 11:23:46;;;;;;;1.13;0.60;;;20.20;99.90;;;;;;5047044;28;20025;-43
2023/08/29 11:26:12;;;;;;;1.00;0.80;;;20.30;99.90;;;;;;5047703;28;20304;-44
2023/08/29 11:28:41;;;;;;;1.27;1.13;;;20.30;99.90;;;;;;5057656;28;20766;-43
2023/08/29 11:31:06;;;;;;;1.42;1.33;;;20.40;99.90;;;;;;5051732;28;20024;-43
2023/08/29 11:33:33;;;;;;;2.17;1.33;;;20.40;99.90;;;;;;5055981;28;20094;-42
2023/08/29 11:36:00;;;;;;;1.40;1.30;;;20.40;99.90;;;;;;5066465;28;20480;-42
2023/08/29 11:38:29;;;;;;;1.23;1.13;;;20.40;99.90;;;;;;5046403;28;20017;-42
2023/08/29 11:40:55;;;;;;;1.27;1.00;;;20.40;99.90;;;;;;5047358;28;20025;-43
2023/08/29 11:43:21;;;;;;;1.55;0.82;;;20.40;99.90;;;;;;5052391;28;20033;-43
2023/08/29 11:45:47;;;;;;;1.00;0.90;;;20.40;99.90;;;;;;5066726;28;20028;-43
2023/08/29 11:48:12;;;;;;;0.90;0.88;;;20.40;99.90;;;;;;5054376;28;20025;-43
2023/08/29 11:50:43;;;;;;;0.90;0.80;;;20.40;99.90;;;;;;5046939;28;20826;-43
2023/08/29 11:53:09;;;;;;;1.08;0.98;;;20.40;99.90;;;;;;5050848;28;20025;-43
2023/08/29 11:55:35;;;;;;;0.65;0.65;;;20.40;99.90;;;;;;5064012;28;20431;-43
2023/08/29 11:58:02;;;;;;;2.22;0.85;;;20.40;99.90;;;;;;5058424;28;20112;-44
2023/08/29 12:00:28;;;;;;;1.15;1.05;;;20.50;99.90;;;;;;5060755;28;20036;-42
2023/08/29 12:02:53;;;;;;;2.15;0.77;;;20.50;99.90;;;;;;5061874;28;20020;-42
2023/08/29 12:05:22;;;;;;;0.80;0.80;;;20.50;99.90;;;;;;5057424;28;20476;-42
2023/08/29 12:07:51;;;;;;;1.58;0.77;;;20.40;99.90;;;;;;5063711;28;20016;-43
2023/08/29 12:10:19;;;;;;;1.20;1.10;;;20.50;99.90;;;;;;5055844;28;20547;-43
2023/08/29 12:12:45;;;;;;;0.95;0.90;;;20.50;99.90;;;;;;5064677;28;20016;-43
2023/08/29 12:15:11;;;;;;;2.15;0.90;;;20.50;99.90;;;;;;5053450;28;20314;-42
2023/08/29 12:17:44;;;;;;;1.15;0.90;;;20.50;99.90;;;;;;5064983;28;20063;-43
2023/08/29 12:20:35;;;;;;;1.10;0.95;;;20.50;99.90;;;;;;5053672;28;20024;-43
2023/08/29 12:23:01;;;;;;;1.20;1.10;;;20.60;99.90;;;;;;5064610;28;20064;-43
2023/08/29 12:25:26;;;;;;;1.20;1.10;;;20.60;99.90;;;;;;5055153;28;20102;-43
2023/08/29 12:27:52;;;;;;;0.80;0.80;;;20.60;99.90;;;;;;5064411;28;20089;-43
2023/08/29 12:30:18;;;;;;;0.93;0.80;;;20.50;99.90;;;;;;5053814;28;20025;-43
2023/08/29 12:32:50;;;;;;;1.15;1.05;;;20.50;99.90;;;;;;5045905;28;20479;-43
2023/08/29 12:35:17;;;;;;;1.35;0.80;;;20.60;99.90;;;;;;5056858;28;20504;-43
2023/08/29 12:37:43;;;;;;;1.95;1.08;;;20.60;99.90;;;;;;5046020;28;20079;-43
2023/08/29 12:40:15;;;;;;;1.00;0.90;;;20.60;99.90;;;;;;5056063;28;20523;-43
2023/08/29 12:42:43;;;;;;;1.73;1.23;;;20.70;99.90;;;;;;5045296;28;20043;-43
2023/08/29 12:45:09;;;;;;;0.93;0.93;;;20.70;99.90;;;;;;5046215;28;20124;-42
2023/08/29 12:47:37;;;;;;;1.05;0.90;;;20.70;99.90;;;;;;5064037;28;20021;-43
2023/08/29 12:50:03;;;;;;;1.10;1.00;;;20.70;99.90;;;;;;5055148;28;20036;-43